sensor_id;sensor_type;location;lat;lon;timestamp;temperature;humidity
48535;DHT22;34323;52.022;5.686;2024-03-17T00:01:38;11.10;99.90
48535;DHT22;34323;52.022;5.686;2024-03-17T00:04:06;11.20;99.90
48535;DHT22;34323;52.022;5.686;2024-03-17T00:06:32;11.40;99.90
48535;DHT22;34323;52.022;5.686;2024-03-17T00:08:59;11.20;99.90
48535;DHT22;34323;52.022;5.686;2024-03-17T00:11:26;11.30;99.90
48535;DHT22;34323;52.022;5.686;2024-03-17T00:13:52;11.30;99.90
48535;DHT22;34323;52.022;5.686;2024-03-17T00:16:18;11.40;99.90
48535;DHT22;34323;52.022;5.686;2024-03-17T00:18:45;11.40;99.90
48535;DHT22;34323;52.022;5.686;2024-03-17T00:21:12;11.30;99.90
48535;DHT22;34323;52.022;5.686;2024-03-17T00:23:39;11.40;99.90
48535;DHT22;34323;52.022;5.686;2024-03-17T00:26:05;11.40;99.90
48535;DHT22;34323;52.022;5.686;2024-03-17T00:28:31;11.40;99.90
48535;DHT22;34323;52.022;5.686;2024-03-17T00:30:56;11.50;99.90
48535;DHT22;34323;52.022;5.686;2024-03-17T00:33:22;11.50;99.90
48535;DHT22;34323;52.022;5.686;2024-03-17T00:35:50;11.30;99.90
48535;DHT22;34323;52.022;5.686;2024-03-17T00:38:15;11.60;99.90
48535;DHT22;34323;52.022;5.686;2024-03-17T00:40:41;11.50;99.90
48535;DHT22;34323;52.022;5.686;2024-03-17T00:43:07;11.60;99.90
48535;DHT22;34323;52.022;5.686;2024-03-17T00:45:33;11.40;99.90
48535;DHT22;34323;52.022;5.686;2024-03-17T00:47:59;11.30;99.90
48535;DHT22;34323;52.022;5.686;2024-03-17T00:50:25;11.40;99.90
48535;DHT22;34323;52.022;5.686;2024-03-17T00:52:51;11.40;99.90
48535;DHT22;34323;52.022;5.686;2024-03-17T00:55:17;11.40;99.90
48535;DHT22;34323;52.022;5.686;2024-03-17T00:57:42;11.40;99.90
48535;DHT22;34323;52.022;5.686;2024-03-17T01:00:10;11.50;99.90
48535;DHT22;34323;52.022;5.686;2024-03-17T01:02:37;11.50;99.90
48535;DHT22;34323;52.022;5.686;2024-03-17T01:05:03;11.40;99.90
48535;DHT22;34323;52.022;5.686;2024-03-17T01:07:31;11.50;99.90
48535;DHT22;34323;52.022;5.686;2024-03-17T01:09:57;11.40;99.90
48535;DHT22;34323;52.022;5.686;2024-03-17T01:12:23;11.30;99.90
48535;DHT22;34323;52.022;5.686;2024-03-17T01:14:49;11.30;99.90
48535;DHT22;34323;52.022;5.686;2024-03-17T01:17:15;11.40;99.90
48535;DHT22;34323;52.022;5.686;2024-03-17T01:19:41;11.30;99.90
48535;DHT22;34323;52.022;5.686;2024-03-17T01:22:07;11.30;99.90
48535;DHT22;34323;52.022;5.686;2024-03-17T01:24:32;11.30;99.90
48535;DHT22;34323;52.022;5.686;2024-03-17T01:27:00;11.40;99.90
48535;DHT22;34323;52.022;5.686;2024-03-17T01:29:27;11.40;99.90
48535;DHT22;34323;52.022;5.686;2024-03-17T01:31:53;11.40;99.90
48535;DHT22;34323;52.022;5.686;2024-03-17T01:34:19;11.40;99.90
48535;DHT22;34323;52.022;5.686;2024-03-17T01:36:45;11.40;99.90
48535;DHT22;34323;52.022;5.686;2024-03-17T01:39:11;11.40;99.90
48535;DHT22;34323;52.022;5.686;2024-03-17T01:41:38;11.40;99.90
48535;DHT22;34323;52.022;5.686;2024-03-17T01:44:04;11.30;99.90
48535;DHT22;34323;52.022;5.686;2024-03-17T01:46:30;11.20;99.90
48535;DHT22;34323;52.022;5.686;2024-03-17T01:48:56;11.30;99.90
48535;DHT22;34323;52.022;5.686;2024-03-17T01:51:23;11.40;99.90
48535;DHT22;34323;52.022;5.686;2024-03-17T01:53:49;11.50;99.90
48535;DHT22;34323;52.022;5.686;2024-03-17T01:56:16;11.50;99.90
48535;DHT22;34323;52.022;5.686;2024-03-17T01:58:45;11.50;99.90
48535;DHT22;34323;52.022;5.686;2024-03-17T02:01:12;11.60;99.90
48535;DHT22;34323;52.022;5.686;2024-03-17T02:03:41;11.60;99.90
48535;DHT22;34323;52.022;5.686;2024-03-17T02:06:08;11.60;99.90
48535;DHT22;34323;52.022;5.686;2024-03-17T02:08:52;11.60;99.90
48535;DHT22;34323;52.022;5.686;2024-03-17T02:11:27;11.40;99.90
48535;DHT22;34323;52.022;5.686;2024-03-17T02:13:54;11.20;99.90
48535;DHT22;34323;52.022;5.686;2024-03-17T02:16:21;11.10;99.90
48535;DHT22;34323;52.022;5.686;2024-03-17T02:18:48;11.30;99.90
48535;DHT22;34323;52.022;5.686;2024-03-17T02:21:14;11.00;99.90
48535;DHT22;34323;52.022;5.686;2024-03-17T02:23:43;11.10;99.90
48535;DHT22;34323;52.022;5.686;2024-03-17T02:26:10;11.10;99.90
48535;DHT22;34323;52.022;5.686;2024-03-17T02:28:43;11.00;99.90
48535;DHT22;34323;52.022;5.686;2024-03-17T02:31:11;11.10;99.90
48535;DHT22;34323;52.022;5.686;2024-03-17T02:33:37;11.00;99.90
48535;DHT22;34323;52.022;5.686;2024-03-17T02:36:05;10.90;99.90
48535;DHT22;34323;52.022;5.686;2024-03-17T02:38:33;11.00;99.90
48535;DHT22;34323;52.022;5.686;2024-03-17T02:41:18;11.00;99.90
48535;DHT22;34323;52.022;5.686;2024-03-17T02:43:44;11.00;99.90
48535;DHT22;34323;52.022;5.686;2024-03-17T02:46:15;11.10;99.90
48535;DHT22;34323;52.022;5.686;2024-03-17T02:48:42;11.10;99.90
48535;DHT22;34323;52.022;5.686;2024-03-17T02:51:15;11.20;99.90
48535;DHT22;34323;52.022;5.686;2024-03-17T02:53:43;11.40;99.90
48535;DHT22;34323;52.022;5.686;2024-03-17T02:56:10;11.30;99.90
48535;DHT22;34323;52.022;5.686;2024-03-17T02:58:37;11.40;99.90
48535;DHT22;34323;52.022;5.686;2024-03-17T03:01:05;11.50;99.90
48535;DHT22;34323;52.022;5.686;2024-03-17T03:03:31;11.60;99.90
48535;DHT22;34323;52.022;5.686;2024-03-17T03:05:57;11.90;99.90
48535;DHT22;34323;52.022;5.686;2024-03-17T03:08:24;12.00;99.90
48535;DHT22;34323;52.022;5.686;2024-03-17T03:10:50;12.10;99.90
48535;DHT22;34323;52.022;5.686;2024-03-17T03:13:16;12.10;99.90
48535;DHT22;34323;52.022;5.686;2024-03-17T03:15:43;12.20;99.90
48535;DHT22;34323;52.022;5.686;2024-03-17T03:18:09;12.20;99.90
48535;DHT22;34323;52.022;5.686;2024-03-17T03:20:35;12.30;99.90
48535;DHT22;34323;52.022;5.686;2024-03-17T03:23:01;12.20;99.90
48535;DHT22;34323;52.022;5.686;2024-03-17T03:25:28;12.30;99.90
48535;DHT22;34323;52.022;5.686;2024-03-17T03:27:54;12.40;99.90
48535;DHT22;34323;52.022;5.686;2024-03-17T03:30:23;12.40;99.90
48535;DHT22;34323;52.022;5.686;2024-03-17T03:32:49;12.40;99.90
48535;DHT22;34323;52.022;5.686;2024-03-17T03:35:15;12.50;99.90
48535;DHT22;34323;52.022;5.686;2024-03-17T03:37:41;12.50;99.90
48535;DHT22;34323;52.022;5.686;2024-03-17T03:40:08;12.50;99.90
48535;DHT22;34323;52.022;5.686;2024-03-17T03:42:44;12.50;99.90
48535;DHT22;34323;52.022;5.686;2024-03-17T03:45:10;12.70;99.90
48535;DHT22;34323;52.022;5.686;2024-03-17T03:47:42;12.80;99.90
48535;DHT22;34323;52.022;5.686;2024-03-17T03:50:14;12.60;99.90
48535;DHT22;34323;52.022;5.686;2024-03-17T03:52:40;12.60;99.90
48535;DHT22;34323;52.022;5.686;2024-03-17T03:55:08;12.60;99.90
48535;DHT22;34323;52.022;5.686;2024-03-17T03:57:38;12.70;99.90
48535;DHT22;34323;52.022;5.686;2024-03-17T04:00:05;12.70;99.90
48535;DHT22;34323;52.022;5.686;2024-03-17T04:02:38;12.60;99.90
48535;DHT22;34323;52.022;5.686;2024-03-17T04:05:05;12.30;99.90
48535;DHT22;34323;52.022;5.686;2024-03-17T04:07:31;12.30;99.90
48535;DHT22;34323;52.022;5.686;2024-03-17T04:09:57;12.30;99.90
48535;DHT22;34323;52.022;5.686;2024-03-17T04:12:24;12.30;99.90
48535;DHT22;34323;52.022;5.686;2024-03-17T04:14:51;12.20;99.90
48535;DHT22;34323;52.022;5.686;2024-03-17T04:17:19;12.30;99.90
48535;DHT22;34323;52.022;5.686;2024-03-17T04:19:50;12.20;99.90
48535;DHT22;34323;52.022;5.686;2024-03-17T04:22:17;12.30;99.90
48535;DHT22;34323;52.022;5.686;2024-03-17T04:24:44;12.10;99.90
48535;DHT22;34323;52.022;5.686;2024-03-17T04:27:10;12.10;99.90
48535;DHT22;34323;52.022;5.686;2024-03-17T04:29:36;12.00;99.90
48535;DHT22;34323;52.022;5.686;2024-03-17T04:32:02;12.10;99.90
48535;DHT22;34323;52.022;5.686;2024-03-17T04:34:29;12.30;99.90
48535;DHT22;34323;52.022;5.686;2024-03-17T04:36:54;12.30;99.90
48535;DHT22;34323;52.022;5.686;2024-03-17T04:39:20;12.20;99.90
48535;DHT22;34323;52.022;5.686;2024-03-17T04:41:47;12.30;99.90
48535;DHT22;34323;52.022;5.686;2024-03-17T04:44:13;12.40;99.90
48535;DHT22;34323;52.022;5.686;2024-03-17T04:46:39;12.40;99.90
48535;DHT22;34323;52.022;5.686;2024-03-17T04:49:05;12.40;99.90
48535;DHT22;34323;52.022;5.686;2024-03-17T04:51:31;12.70;99.90
48535;DHT22;34323;52.022;5.686;2024-03-17T04:54:01;12.70;99.90
48535;DHT22;34323;52.022;5.686;2024-03-17T04:56:29;12.80;99.90
48535;DHT22;34323;52.022;5.686;2024-03-17T04:58:55;12.60;99.90
48535;DHT22;34323;52.022;5.686;2024-03-17T05:01:21;12.60;99.90
48535;DHT22;34323;52.022;5.686;2024-03-17T05:03:47;12.60;99.90
48535;DHT22;34323;52.022;5.686;2024-03-17T05:06:16;12.60;99.90
48535;DHT22;34323;52.022;5.686;2024-03-17T05:08:42;12.30;99.90
48535;DHT22;34323;52.022;5.686;2024-03-17T05:11:09;12.40;99.90
48535;DHT22;34323;52.022;5.686;2024-03-17T05:13:36;12.50;99.90
48535;DHT22;34323;52.022;5.686;2024-03-17T05:16:04;12.60;99.90
48535;DHT22;34323;52.022;5.686;2024-03-17T05:18:30;12.50;99.90
48535;DHT22;34323;52.022;5.686;2024-03-17T05:21:05;12.70;99.90
48535;DHT22;34323;52.022;5.686;2024-03-17T05:23:32;12.60;99.90
48535;DHT22;34323;52.022;5.686;2024-03-17T05:25:59;12.70;99.90
48535;DHT22;34323;52.022;5.686;2024-03-17T05:28:26;12.70;99.90
48535;DHT22;34323;52.022;5.686;2024-03-17T05:30:53;12.70;99.90
48535;DHT22;34323;52.022;5.686;2024-03-17T05:33:19;12.70;99.90
48535;DHT22;34323;52.022;5.686;2024-03-17T05:35:57;12.80;99.90
48535;DHT22;34323;52.022;5.686;2024-03-17T05:38:24;12.60;99.90
48535;DHT22;34323;52.022;5.686;2024-03-17T05:43:21;12.60;99.90
48535;DHT22;34323;52.022;5.686;2024-03-17T05:45:47;12.40;99.90
48535;DHT22;34323;52.022;5.686;2024-03-17T05:48:13;12.30;99.90
48535;DHT22;34323;52.022;5.686;2024-03-17T05:50:39;12.40;99.90
48535;DHT22;34323;52.022;5.686;2024-03-17T05:53:05;12.50;99.90
48535;DHT22;34323;52.022;5.686;2024-03-17T05:55:30;12.70;99.90
48535;DHT22;34323;52.022;5.686;2024-03-17T05:57:56;12.70;99.90
48535;DHT22;34323;52.022;5.686;2024-03-17T06:00:22;12.70;99.90
48535;DHT22;34323;52.022;5.686;2024-03-17T06:02:48;12.70;99.90
48535;DHT22;34323;52.022;5.686;2024-03-17T06:05:14;12.70;99.90
48535;DHT22;34323;52.022;5.686;2024-03-17T06:07:40;12.70;99.90
48535;DHT22;34323;52.022;5.686;2024-03-17T06:10:06;12.70;99.90
48535;DHT22;34323;52.022;5.686;2024-03-17T06:12:32;12.70;99.90
48535;DHT22;34323;52.022;5.686;2024-03-17T06:14:59;12.70;99.90
48535;DHT22;34323;52.022;5.686;2024-03-17T06:17:25;12.70;99.90
48535;DHT22;34323;52.022;5.686;2024-03-17T06:19:52;12.70;99.90
48535;DHT22;34323;52.022;5.686;2024-03-17T06:22:18;12.90;99.90
48535;DHT22;34323;52.022;5.686;2024-03-17T06:24:43;12.90;99.90
48535;DHT22;34323;52.022;5.686;2024-03-17T06:27:09;13.00;99.90
48535;DHT22;34323;52.022;5.686;2024-03-17T06:29:35;13.00;99.90
48535;DHT22;34323;52.022;5.686;2024-03-17T06:32:01;12.90;99.90
48535;DHT22;34323;52.022;5.686;2024-03-17T06:34:27;13.00;99.90
48535;DHT22;34323;52.022;5.686;2024-03-17T06:36:53;13.00;99.90
48535;DHT22;34323;52.022;5.686;2024-03-17T06:39:19;13.00;99.90
48535;DHT22;34323;52.022;5.686;2024-03-17T06:41:46;13.20;99.90
48535;DHT22;34323;52.022;5.686;2024-03-17T06:44:12;13.30;99.90
48535;DHT22;34323;52.022;5.686;2024-03-17T06:46:38;13.30;99.90
48535;DHT22;34323;52.022;5.686;2024-03-17T06:49:04;13.20;99.90
48535;DHT22;34323;52.022;5.686;2024-03-17T06:51:30;13.20;99.90
48535;DHT22;34323;52.022;5.686;2024-03-17T06:53:56;13.20;99.90
48535;DHT22;34323;52.022;5.686;2024-03-17T06:56:22;13.20;99.90
48535;DHT22;34323;52.022;5.686;2024-03-17T06:58:48;13.20;99.90
48535;DHT22;34323;52.022;5.686;2024-03-17T07:01:13;13.30;99.90
48535;DHT22;34323;52.022;5.686;2024-03-17T07:03:39;13.40;99.90
48535;DHT22;34323;52.022;5.686;2024-03-17T07:06:05;13.40;99.90
48535;DHT22;34323;52.022;5.686;2024-03-17T07:08:33;13.30;99.90
48535;DHT22;34323;52.022;5.686;2024-03-17T07:11:04;13.40;99.90
48535;DHT22;34323;52.022;5.686;2024-03-17T07:13:38;13.60;99.90
48535;DHT22;34323;52.022;5.686;2024-03-17T07:16:07;13.70;99.90
48535;DHT22;34323;52.022;5.686;2024-03-17T07:18:34;13.70;99.90
48535;DHT22;34323;52.022;5.686;2024-03-17T07:21:02;13.80;99.90
48535;DHT22;34323;52.022;5.686;2024-03-17T07:23:30;13.80;99.90
48535;DHT22;34323;52.022;5.686;2024-03-17T07:25:58;13.90;99.90
48535;DHT22;34323;52.022;5.686;2024-03-17T07:28:24;13.80;99.90
48535;DHT22;34323;52.022;5.686;2024-03-17T07:30:52;13.90;99.90
48535;DHT22;34323;52.022;5.686;2024-03-17T07:33:18;13.90;99.90
48535;DHT22;34323;52.022;5.686;2024-03-17T07:35:56;13.90;99.90
48535;DHT22;34323;52.022;5.686;2024-03-17T07:38:23;13.90;99.90
48535;DHT22;34323;52.022;5.686;2024-03-17T07:41:01;13.60;99.90
48535;DHT22;34323;52.022;5.686;2024-03-17T07:43:28;13.60;99.90
48535;DHT22;34323;52.022;5.686;2024-03-17T07:46:12;13.40;99.90
48535;DHT22;34323;52.022;5.686;2024-03-17T07:48:43;13.60;99.90
48535;DHT22;34323;52.022;5.686;2024-03-17T07:51:11;13.60;99.90
48535;DHT22;34323;52.022;5.686;2024-03-17T07:53:39;13.80;99.90
48535;DHT22;34323;52.022;5.686;2024-03-17T07:56:09;13.90;99.90
48535;DHT22;34323;52.022;5.686;2024-03-17T07:58:37;13.80;99.90
48535;DHT22;34323;52.022;5.686;2024-03-17T08:01:11;14.00;99.90
48535;DHT22;34323;52.022;5.686;2024-03-17T08:03:38;14.00;99.90
48535;DHT22;34323;52.022;5.686;2024-03-17T08:06:08;14.00;99.90
48535;DHT22;34323;52.022;5.686;2024-03-17T08:08:35;14.10;99.90
48535;DHT22;34323;52.022;5.686;2024-03-17T08:11:01;14.20;99.90
48535;DHT22;34323;52.022;5.686;2024-03-17T08:13:29;14.30;99.90
48535;DHT22;34323;52.022;5.686;2024-03-17T08:16:09;14.40;99.90
48535;DHT22;34323;52.022;5.686;2024-03-17T08:18:35;14.50;99.90
48535;DHT22;34323;52.022;5.686;2024-03-17T08:21:02;14.60;99.90
48535;DHT22;34323;52.022;5.686;2024-03-17T08:23:32;14.80;99.90
48535;DHT22;34323;52.022;5.686;2024-03-17T08:26:00;14.80;99.90
48535;DHT22;34323;52.022;5.686;2024-03-17T08:28:27;14.90;99.90
48535;DHT22;34323;52.022;5.686;2024-03-17T08:30:58;14.90;99.90
48535;DHT22;34323;52.022;5.686;2024-03-17T08:33:24;15.00;99.90
48535;DHT22;34323;52.022;5.686;2024-03-17T08:36:04;15.10;99.90
48535;DHT22;34323;52.022;5.686;2024-03-17T08:38:32;14.60;99.90
48535;DHT22;34323;52.022;5.686;2024-03-17T08:41:05;14.50;99.90
48535;DHT22;34323;52.022;5.686;2024-03-17T08:43:31;14.40;99.90
48535;DHT22;34323;52.022;5.686;2024-03-17T08:48:30;14.70;99.90
48535;DHT22;34323;52.022;5.686;2024-03-17T08:50:59;14.90;99.90
48535;DHT22;34323;52.022;5.686;2024-03-17T08:53:26;14.60;99.90
48535;DHT22;34323;52.022;5.686;2024-03-17T08:55:52;14.60;99.90
48535;DHT22;34323;52.022;5.686;2024-03-17T08:58:19;14.50;99.90
48535;DHT22;34323;52.022;5.686;2024-03-17T09:00:45;14.60;99.90
48535;DHT22;34323;52.022;5.686;2024-03-17T09:03:11;14.80;99.90
48535;DHT22;34323;52.022;5.686;2024-03-17T09:05:43;15.00;99.90
48535;DHT22;34323;52.022;5.686;2024-03-17T09:08:19;14.90;99.90
48535;DHT22;34323;52.022;5.686;2024-03-17T09:10:46;15.10;99.90
48535;DHT22;34323;52.022;5.686;2024-03-17T09:13:17;15.30;99.90
48535;DHT22;34323;52.022;5.686;2024-03-17T09:16:02;15.30;99.90
48535;DHT22;34323;52.022;5.686;2024-03-17T09:18:32;15.20;99.90
48535;DHT22;34323;52.022;5.686;2024-03-17T09:21:05;14.80;99.90
48535;DHT22;34323;52.022;5.686;2024-03-17T09:23:31;14.90;99.90
48535;DHT22;34323;52.022;5.686;2024-03-17T09:26:07;15.20;99.90
48535;DHT22;34323;52.022;5.686;2024-03-17T09:28:38;15.50;99.90
48535;DHT22;34323;52.022;5.686;2024-03-17T09:31:04;15.30;99.90
48535;DHT22;34323;52.022;5.686;2024-03-17T09:33:34;15.50;99.90
48535;DHT22;34323;52.022;5.686;2024-03-17T09:36:03;15.70;99.90
48535;DHT22;34323;52.022;5.686;2024-03-17T09:38:29;15.90;99.90
48535;DHT22;34323;52.022;5.686;2024-03-17T09:40:55;16.00;99.90
48535;DHT22;34323;52.022;5.686;2024-03-17T09:43:27;16.10;99.90
48535;DHT22;34323;52.022;5.686;2024-03-17T09:45:53;16.40;99.90
48535;DHT22;34323;52.022;5.686;2024-03-17T09:48:27;16.50;99.90
48535;DHT22;34323;52.022;5.686;2024-03-17T09:50:54;16.60;99.90
48535;DHT22;34323;52.022;5.686;2024-03-17T09:55:52;16.60;99.90
48535;DHT22;34323;52.022;5.686;2024-03-17T09:58:19;16.80;99.90
48535;DHT22;34323;52.022;5.686;2024-03-17T10:00:45;17.10;99.90
48535;DHT22;34323;52.022;5.686;2024-03-17T10:03:12;17.20;99.90
48535;DHT22;34323;52.022;5.686;2024-03-17T10:06:01;17.30;99.90
48535;DHT22;34323;52.022;5.686;2024-03-17T10:08:26;17.50;99.90
48535;DHT22;34323;52.022;5.686;2024-03-17T10:10:53;17.70;99.90
48535;DHT22;34323;52.022;5.686;2024-03-17T10:13:21;17.60;99.90
48535;DHT22;34323;52.022;5.686;2024-03-17T10:15:50;17.30;99.90
48535;DHT22;34323;52.022;5.686;2024-03-17T10:18:22;17.20;99.90
48535;DHT22;34323;52.022;5.686;2024-03-17T10:20:49;17.10;99.90
48535;DHT22;34323;52.022;5.686;2024-03-17T10:23:20;16.50;99.90
48535;DHT22;34323;52.022;5.686;2024-03-17T10:25:46;16.00;99.90
48535;DHT22;34323;52.022;5.686;2024-03-17T10:28:14;16.40;99.90
48535;DHT22;34323;52.022;5.686;2024-03-17T10:30:42;16.70;99.90
48535;DHT22;34323;52.022;5.686;2024-03-17T10:33:23;16.90;99.90
48535;DHT22;34323;52.022;5.686;2024-03-17T10:35:51;17.30;99.90
48535;DHT22;34323;52.022;5.686;2024-03-17T10:38:23;17.50;99.90
48535;DHT22;34323;52.022;5.686;2024-03-17T10:40:49;17.50;99.90
48535;DHT22;34323;52.022;5.686;2024-03-17T10:43:15;17.40;99.90
48535;DHT22;34323;52.022;5.686;2024-03-17T10:45:42;17.50;99.90
48535;DHT22;34323;52.022;5.686;2024-03-17T10:48:09;17.60;99.90
48535;DHT22;34323;52.022;5.686;2024-03-17T10:50:39;17.70;99.90
48535;DHT22;34323;52.022;5.686;2024-03-17T10:53:07;17.50;99.90
48535;DHT22;34323;52.022;5.686;2024-03-17T10:55:46;17.60;99.90
48535;DHT22;34323;52.022;5.686;2024-03-17T10:58:38;17.50;99.90
48535;DHT22;34323;52.022;5.686;2024-03-17T11:01:13;17.70;99.90
48535;DHT22;34323;52.022;5.686;2024-03-17T11:03:39;17.70;99.90
48535;DHT22;34323;52.022;5.686;2024-03-17T11:06:06;17.60;99.90
48535;DHT22;34323;52.022;5.686;2024-03-17T11:08:34;17.40;99.90
48535;DHT22;34323;52.022;5.686;2024-03-17T11:11:01;17.00;99.90
48535;DHT22;34323;52.022;5.686;2024-03-17T11:13:31;16.80;99.90
48535;DHT22;34323;52.022;5.686;2024-03-17T11:15:58;16.50;99.90
48535;DHT22;34323;52.022;5.686;2024-03-17T11:18:36;16.60;99.90
48535;DHT22;34323;52.022;5.686;2024-03-17T11:23:34;17.00;99.90
48535;DHT22;34323;52.022;5.686;2024-03-17T11:26:00;17.10;99.90
48535;DHT22;34323;52.022;5.686;2024-03-17T11:31:39;18.00;99.90
48535;DHT22;34323;52.022;5.686;2024-03-17T11:34:29;17.80;99.90
48535;DHT22;34323;52.022;5.686;2024-03-17T11:36:55;17.70;99.90
48535;DHT22;34323;52.022;5.686;2024-03-17T11:39:51;17.90;99.90
48535;DHT22;34323;52.022;5.686;2024-03-17T11:42:21;17.50;99.90
48535;DHT22;34323;52.022;5.686;2024-03-17T11:45:12;17.60;99.90
48535;DHT22;34323;52.022;5.686;2024-03-17T11:47:40;17.80;99.90
48535;DHT22;34323;52.022;5.686;2024-03-17T11:50:08;18.20;99.90
48535;DHT22;34323;52.022;5.686;2024-03-17T11:52:36;18.20;99.90
48535;DHT22;34323;52.022;5.686;2024-03-17T11:55:02;18.40;99.90
48535;DHT22;34323;52.022;5.686;2024-03-17T11:57:28;18.60;99.90
48535;DHT22;34323;52.022;5.686;2024-03-17T11:59:55;18.20;99.90
48535;DHT22;34323;52.022;5.686;2024-03-17T12:02:27;18.20;99.90
48535;DHT22;34323;52.022;5.686;2024-03-17T12:05:01;18.20;99.90
48535;DHT22;34323;52.022;5.686;2024-03-17T12:07:27;18.40;99.90
48535;DHT22;34323;52.022;5.686;2024-03-17T12:09:56;18.00;99.90
48535;DHT22;34323;52.022;5.686;2024-03-17T12:12:24;17.70;99.90
48535;DHT22;34323;52.022;5.686;2024-03-17T12:14:56;17.10;99.90
48535;DHT22;34323;52.022;5.686;2024-03-17T12:17:23;16.90;99.90
48535;DHT22;34323;52.022;5.686;2024-03-17T12:19:50;17.10;99.90
48535;DHT22;34323;52.022;5.686;2024-03-17T12:22:24;17.20;99.90
48535;DHT22;34323;52.022;5.686;2024-03-17T12:24:55;16.90;99.90
48535;DHT22;34323;52.022;5.686;2024-03-17T12:27:23;17.00;99.90
48535;DHT22;34323;52.022;5.686;2024-03-17T12:29:52;17.30;99.90
48535;DHT22;34323;52.022;5.686;2024-03-17T12:32:20;17.30;99.90
48535;DHT22;34323;52.022;5.686;2024-03-17T12:34:54;17.50;99.90
48535;DHT22;34323;52.022;5.686;2024-03-17T12:37:21;17.40;99.90
48535;DHT22;34323;52.022;5.686;2024-03-17T12:39:48;17.00;99.90
48535;DHT22;34323;52.022;5.686;2024-03-17T12:42:24;16.80;99.90
48535;DHT22;34323;52.022;5.686;2024-03-17T12:44:58;16.90;99.90
48535;DHT22;34323;52.022;5.686;2024-03-17T12:47:28;17.10;99.90
48535;DHT22;34323;52.022;5.686;2024-03-17T12:49:55;17.50;99.90
48535;DHT22;34323;52.022;5.686;2024-03-17T12:52:23;17.60;99.90
48535;DHT22;34323;52.022;5.686;2024-03-17T12:55:41;17.50;99.90
48535;DHT22;34323;52.022;5.686;2024-03-17T12:58:08;17.40;99.90
48535;DHT22;34323;52.022;5.686;2024-03-17T13:01:03;17.30;99.90
48535;DHT22;34323;52.022;5.686;2024-03-17T13:03:30;17.50;99.90
48535;DHT22;34323;52.022;5.686;2024-03-17T13:05:57;17.40;99.90
48535;DHT22;34323;52.022;5.686;2024-03-17T13:08:23;16.90;99.90
48535;DHT22;34323;52.022;5.686;2024-03-17T13:10:49;16.70;99.90
48535;DHT22;34323;52.022;5.686;2024-03-17T13:13:15;16.60;99.90
48535;DHT22;34323;52.022;5.686;2024-03-17T13:15:43;16.40;99.90
48535;DHT22;34323;52.022;5.686;2024-03-17T13:18:09;16.70;99.90
48535;DHT22;34323;52.022;5.686;2024-03-17T13:20:35;17.10;99.90
48535;DHT22;34323;52.022;5.686;2024-03-17T13:23:02;17.00;99.90
48535;DHT22;34323;52.022;5.686;2024-03-17T13:25:30;17.40;99.90
48535;DHT22;34323;52.022;5.686;2024-03-17T13:28:00;17.60;99.90
48535;DHT22;34323;52.022;5.686;2024-03-17T13:30:27;17.90;99.90
48535;DHT22;34323;52.022;5.686;2024-03-17T13:32:54;17.90;99.90
48535;DHT22;34323;52.022;5.686;2024-03-17T13:35:27;17.30;99.90
48535;DHT22;34323;52.022;5.686;2024-03-17T13:37:55;17.00;99.90
48535;DHT22;34323;52.022;5.686;2024-03-17T13:40:22;16.80;99.90
48535;DHT22;34323;52.022;5.686;2024-03-17T13:42:53;16.90;99.90
48535;DHT22;34323;52.022;5.686;2024-03-17T13:45:20;17.00;99.90
48535;DHT22;34323;52.022;5.686;2024-03-17T13:47:52;17.00;99.90
48535;DHT22;34323;52.022;5.686;2024-03-17T13:50:19;16.90;99.90
48535;DHT22;34323;52.022;5.686;2024-03-17T13:52:45;16.90;99.90
48535;DHT22;34323;52.022;5.686;2024-03-17T13:55:14;17.10;99.90
48535;DHT22;34323;52.022;5.686;2024-03-17T13:57:45;17.30;99.90
48535;DHT22;34323;52.022;5.686;2024-03-17T14:00:12;17.10;99.90
48535;DHT22;34323;52.022;5.686;2024-03-17T14:02:45;17.10;99.90
48535;DHT22;34323;52.022;5.686;2024-03-17T14:05:16;17.20;99.90
48535;DHT22;34323;52.022;5.686;2024-03-17T14:07:42;17.40;99.90
48535;DHT22;34323;52.022;5.686;2024-03-17T14:10:09;17.60;99.90
48535;DHT22;34323;52.022;5.686;2024-03-17T14:12:36;17.50;99.90
48535;DHT22;34323;52.022;5.686;2024-03-17T14:15:03;17.70;99.90
48535;DHT22;34323;52.022;5.686;2024-03-17T14:17:31;18.00;99.90
48535;DHT22;34323;52.022;5.686;2024-03-17T14:19:57;18.00;99.90
48535;DHT22;34323;52.022;5.686;2024-03-17T14:22:22;17.90;99.90
48535;DHT22;34323;52.022;5.686;2024-03-17T14:24:48;17.90;99.90
48535;DHT22;34323;52.022;5.686;2024-03-17T14:27:15;17.80;99.90
48535;DHT22;34323;52.022;5.686;2024-03-17T14:29:43;17.40;99.90
48535;DHT22;34323;52.022;5.686;2024-03-17T14:32:09;17.40;99.90
48535;DHT22;34323;52.022;5.686;2024-03-17T14:34:34;17.60;99.90
48535;DHT22;34323;52.022;5.686;2024-03-17T14:37:03;17.70;99.90
48535;DHT22;34323;52.022;5.686;2024-03-17T14:39:29;17.80;99.90
48535;DHT22;34323;52.022;5.686;2024-03-17T14:41:55;18.00;99.90
48535;DHT22;34323;52.022;5.686;2024-03-17T14:44:22;18.30;99.90
48535;DHT22;34323;52.022;5.686;2024-03-17T14:46:49;18.10;99.90
48535;DHT22;34323;52.022;5.686;2024-03-17T14:49:18;18.30;99.90
48535;DHT22;34323;52.022;5.686;2024-03-17T14:51:44;18.20;99.90
48535;DHT22;34323;52.022;5.686;2024-03-17T14:54:10;18.20;99.90
48535;DHT22;34323;52.022;5.686;2024-03-17T14:56:37;18.10;99.90
48535;DHT22;34323;52.022;5.686;2024-03-17T14:59:03;17.90;99.90
48535;DHT22;34323;52.022;5.686;2024-03-17T15:01:29;17.60;99.90
48535;DHT22;34323;52.022;5.686;2024-03-17T15:03:55;17.70;99.90
48535;DHT22;34323;52.022;5.686;2024-03-17T15:06:21;17.70;99.90
48535;DHT22;34323;52.022;5.686;2024-03-17T15:08:48;17.70;99.90
48535;DHT22;34323;52.022;5.686;2024-03-17T15:11:14;18.00;99.90
48535;DHT22;34323;52.022;5.686;2024-03-17T15:13:39;18.30;99.90
48535;DHT22;34323;52.022;5.686;2024-03-17T15:16:08;18.40;99.90
48535;DHT22;34323;52.022;5.686;2024-03-17T15:18:34;18.30;99.90
48535;DHT22;34323;52.022;5.686;2024-03-17T15:21:03;18.10;99.90
48535;DHT22;34323;52.022;5.686;2024-03-17T15:23:32;18.60;99.90
48535;DHT22;34323;52.022;5.686;2024-03-17T15:26:05;18.20;99.90
48535;DHT22;34323;52.022;5.686;2024-03-17T15:28:36;18.20;99.90
48535;DHT22;34323;52.022;5.686;2024-03-17T15:31:03;18.50;99.90
48535;DHT22;34323;52.022;5.686;2024-03-17T15:33:29;18.80;99.90
48535;DHT22;34323;52.022;5.686;2024-03-17T15:35:55;18.70;99.90
48535;DHT22;34323;52.022;5.686;2024-03-17T15:38:21;18.40;99.90
48535;DHT22;34323;52.022;5.686;2024-03-17T15:40:48;18.40;99.90
48535;DHT22;34323;52.022;5.686;2024-03-17T15:43:13;18.50;99.90
48535;DHT22;34323;52.022;5.686;2024-03-17T15:45:39;18.50;99.90
48535;DHT22;34323;52.022;5.686;2024-03-17T15:48:07;18.50;99.90
48535;DHT22;34323;52.022;5.686;2024-03-17T15:50:33;18.50;99.90